Time;durP1;ratioP1;P1;durP2;ratioP2;P2;SDS_P1;SDS_P2;PMS_P1;PMS_P2;Temp;Humidity;BMP_temperature;BMP_pressure;BME280_temperature;BME280_humidity;BME280_pressure;Samples;Min_cycle;Max_cycle;Signal;HPM_P1;HPM_P2
2021/01/29 00:01:52;;;;;;;65.95;10.07;;;;;;;11.12;100.00;100357.63;5069969;28;20126;-62
2021/01/29 00:04:17;;;;;;;85.47;9.65;;;;;;;11.13;100.00;100356.53;5071306;28;20041;-62
2021/01/29 00:06:43;;;;;;;72.55;10.55;;;;;;;11.13;100.00;100345.63;5071482;28;20047;-62
2021/01/29 00:12:56;;;;;;;76.90;12.43;;;;;;;11.14;100.00;100352.72;5071288;28;20063;-63
2021/01/29 00:15:22;;;;;;;78.10;12.02;;;;;;;11.17;100.00;100357.69;5071229;28;20036;-62
2021/01/29 00:17:48;;;;;;;72.32;10.35;;;;;;;11.14;100.00;100352.72;5071131;28;20043;-62
2021/01/29 00:20:18;;;;;;;74.85;10.25;;;;;;;11.14;100.00;100357.38;5071023;28;20148;-63
2021/01/29 00:22:45;;;;;;;68.50;8.52;;;;;;;11.10;100.00;100365.22;5071622;28;20063;-62
2021/01/29 00:25:15;;;;;;;68.13;10.57;;;;;;;11.10;100.00;100359.78;5071137;28;20044;-62
2021/01/29 00:27:41;;;;;;;64.20;10.23;;;;;;;11.06;100.00;100361.38;5070950;28;20063;-63
2021/01/29 00:30:08;;;;;;;59.42;8.88;;;;;;;11.04;100.00;100369.00;5070896;28;20040;-63
2021/01/29 00:32:34;;;;;;;56.00;9.00;;;;;;;11.03;100.00;100363.81;5070985;28;20471;-62
2021/01/29 00:35:00;;;;;;;75.53;9.82;;;;;;;11.01;100.00;100360.50;5070931;28;20029;-63
2021/01/29 00:37:25;;;;;;;66.07;9.82;;;;;;;10.99;100.00;100366.22;5070979;28;20039;-63
2021/01/29 00:39:51;;;;;;;59.90;8.95;;;;;;;10.98;100.00;100359.13;5070992;28;20059;-63
2021/01/29 00:42:17;;;;;;;63.50;9.27;;;;;;;10.96;100.00;100355.81;5070786;28;20036;-63
2021/01/29 00:44:43;;;;;;;68.43;10.30;;;;;;;10.98;100.00;100350.09;5070807;28;20395;-63
2021/01/29 00:47:09;;;;;;;59.83;8.65;;;;;;;10.97;100.00;100352.00;5070858;28;20115;-62
2021/01/29 00:49:34;;;;;;;58.65;8.18;;;;;;;10.97;100.00;100352.00;5070724;28;20045;-63
2021/01/29 00:52:00;;;;;;;64.38;8.65;;;;;;;10.99;100.00;100347.09;5070723;28;20043;-62
2021/01/29 00:54:26;;;;;;;60.33;7.65;;;;;;;11.01;100.00;100352.31;5070902;28;20063;-62
2021/01/29 00:56:53;;;;;;;60.53;8.65;;;;;;;11.01;100.00;100353.13;5070842;28;20404;-63
2021/01/29 00:59:19;;;;;;;64.78;10.57;;;;;;;11.03;100.00;100344.69;5070721;28;20044;-62
2021/01/29 01:01:44;;;;;;;59.22;8.55;;;;;;;11.01;100.00;100342.19;5070583;28;20051;-63
2021/01/29 01:04:12;;;;;;;61.30;8.82;;;;;;;10.98;100.00;100337.25;5073355;28;20054;-63
2021/01/29 01:06:39;;;;;;;62.63;7.82;;;;;;;10.99;100.00;100338.91;5075017;28;20032;-63
2021/01/29 01:09:04;;;;;;;66.07;10.40;;;;;;;10.99;100.00;100338.06;5074819;28;20037;-63
2021/01/29 01:11:30;;;;;;;73.05;10.30;;;;;;;10.99;100.00;100343.53;5074771;28;20039;-63
2021/01/29 01:13:56;;;;;;;52.85;8.07;;;;;;;10.97;100.00;100323.84;5074734;28;20037;-63
2021/01/29 01:16:22;;;;;;;56.38;8.13;;;;;;;10.97;100.00;100323.84;5073294;28;20120;-63
2021/01/29 01:18:47;;;;;;;55.05;8.00;;;;;;;10.97;100.00;100319.22;5074512;28;20056;-62
2021/01/29 01:21:13;;;;;;;48.60;8.55;;;;;;;10.96;100.00;100316.75;5074407;28;20045;-63
2021/01/29 01:23:38;;;;;;;44.55;6.90;;;;;;;10.96;100.00;100317.56;5073274;28;20085;-62
2021/01/29 01:26:04;;;;;;;39.72;6.78;;;;;;;10.99;100.00;100310.75;5074261;28;20048;-63
2021/01/29 01:28:30;;;;;;;56.40;7.63;;;;;;;11.03;100.00;100307.25;5074662;28;20091;-63
2021/01/29 01:30:55;;;;;;;48.78;6.85;;;;;;;11.05;100.00;100305.06;5074314;28;20093;-63
2021/01/29 01:33:21;;;;;;;52.67;7.20;;;;;;;11.06;100.00;100301.25;5074197;28;20037;-63
2021/01/29 01:35:46;;;;;;;47.22;7.38;;;;;;;11.06;100.00;100295.78;5074276;28;20138;-62
2021/01/29 01:38:12;;;;;;;50.53;6.68;;;;;;;11.08;100.00;100304.53;5074294;28;20064;-63
2021/01/29 01:40:41;;;;;;;47.28;7.50;;;;;;;11.07;100.00;100299.34;5074247;28;20063;-62
2021/01/29 01:43:07;;;;;;;52.05;8.13;;;;;;;11.09;100.00;100288.97;5074149;28;20035;-63
2021/01/29 01:45:33;;;;;;;64.20;7.75;;;;;;;11.09;100.00;100295.25;5074166;28;20036;-63
2021/01/29 01:48:04;;;;;;;44.55;6.82;;;;;;;11.09;100.00;100306.19;5073915;28;20078;-62
2021/01/29 01:50:32;;;;;;;53.05;7.50;;;;;;;11.11;100.00;100303.22;5073692;28;20120;-63
2021/01/29 01:53:01;;;;;;;67.82;8.20;;;;;;;11.10;100.00;100296.91;5072436;28;20040;-62
2021/01/29 01:55:34;;;;;;;49.55;6.78;;;;;;;11.08;100.00;100304.53;5073908;28;20479;-63
2021/01/29 01:58:00;;;;;;;56.88;8.25;;;;;;;11.05;100.00;100294.13;5073904;28;20024;-62
2021/01/29 02:00:29;;;;;;;46.65;7.10;;;;;;;11.03;100.00;100290.03;5073782;28;20081;-62
2021/01/29 02:03:07;;;;;;;63.17;9.25;;;;;;;11.03;100.00;100293.56;5073828;28;20479;-63
2021/01/29 02:05:39;;;;;;;60.85;8.60;;;;;;;11.03;100.00;100299.03;5073504;28;20036;-63
2021/01/29 02:08:07;;;;;;;43.17;7.05;;;;;;;11.04;100.00;100283.47;5073519;28;20036;-63
2021/01/29 02:10:33;;;;;;;54.45;8.32;;;;;;;11.04;100.00;100303.41;5073481;28;20036;-63
2021/01/29 02:13:00;;;;;;;41.13;5.35;;;;;;;11.05;100.00;100283.22;5073454;28;20036;-62
2021/01/29 02:15:30;;;;;;;42.67;6.68;;;;;;;11.05;100.00;100299.59;5073539;28;20382;-62
2021/01/29 02:18:11;;;;;;;47.63;7.30;;;;;;;11.06;100.00;100295.78;5073745;28;20440;-63
2021/01/29 02:21:14;;;;;;;50.55;8.35;;;;;;;11.05;100.00;100296.88;5072070;28;20024;-63
2021/01/29 02:23:39;;;;;;;60.33;7.80;;;;;;;11.06;100.00;100295.78;5073248;28;20036;-62
2021/01/29 02:26:46;;;;;;;46.05;6.80;;;;;;;11.05;100.00;100299.59;5073183;28;20613;-62
2021/01/29 02:29:23;;;;;;;41.03;6.07;;;;;;;11.05;100.00;100301.50;5073645;28;20102;-63
2021/01/29 02:32:14;;;;;;;32.03;5.97;;;;;;;11.06;100.00;100300.44;5073305;28;20055;-63
2021/01/29 02:35:04;;;;;;;43.45;6.57;;;;;;;11.05;100.00;100296.88;5073301;28;20471;-63
2021/01/29 02:37:48;;;;;;;40.33;5.85;;;;;;;11.05;100.00;100288.66;5073117;28;20085;-63
2021/01/29 02:40:34;;;;;;;46.03;6.25;;;;;;;11.06;100.00;100284.84;5072777;28;20043;-62
2021/01/29 02:43:22;;;;;;;44.05;7.93;;;;;;;11.08;100.00;100281.84;5072997;28;20036;-62
2021/01/29 02:46:05;;;;;;;45.63;6.78;;;;;;;11.09;100.00;100289.78;5073137;28;20439;-63
2021/01/29 02:49:00;;;;;;;48.03;6.80;;;;;;;11.06;100.00;100290.31;5073013;28;20041;-63
2021/01/29 02:51:37;;;;;;;47.33;7.63;;;;;;;11.07;100.00;100270.09;5073016;28;20086;-63
2021/01/29 02:54:13;;;;;;;50.30;7.13;;;;;;;11.09;100.00;100275.31;5072843;28;20052;-63
2021/01/29 02:56:51;;;;;;;52.28;9.00;;;;;;;11.04;100.00;100265.16;5072691;28;20541;-63
2021/01/29 02:59:26;;;;;;;48.75;6.85;;;;;;;11.03;100.00;100274.44;5072692;28;20040;-62
2021/01/29 03:01:57;;;;;;;54.03;6.90;;;;;;;11.02;100.00;100275.53;5072572;28;20040;-63
2021/01/29 03:04:53;;;;;;;41.03;6.88;;;;;;;11.00;100.00;100272.25;5072933;28;20479;-63
2021/01/29 03:07:35;;;;;;;50.92;5.95;;;;;;;10.99;100.00;100256.94;5071224;28;20459;-62
2021/01/29 03:10:36;;;;;;;43.97;5.55;;;;;;;10.94;100.00;100254.16;5072270;28;20427;-63
2021/01/29 03:13:12;;;;;;;33.65;5.38;;;;;;;10.94;100.00;100259.63;5072202;28;20044;-63
2021/01/29 03:15:43;;;;;;;44.20;5.68;;;;;;;10.97;100.00;100261.84;5072124;28;20036;-63
2021/01/29 03:18:29;;;;;;;40.50;6.10;;;;;;;10.97;100.00;100252.81;5072167;28;20115;-63
2021/01/29 03:21:16;;;;;;;43.83;5.93;;;;;;;10.97;100.00;100259.09;5072160;28;20481;-63
2021/01/29 03:23:51;;;;;;;36.60;5.03;;;;;;;10.94;100.00;100259.63;5072181;28;20563;-63
2021/01/29 03:26:21;;;;;;;;;;;;;;;10.94;100.00;100250.59;5071929;28;20032;-63
2021/01/29 03:28:54;;;;;;;38.60;5.22;;;;;;;10.94;100.00;100261.53;5072107;28;19917;-63
2021/01/29 03:31:22;;;;;;;35.28;6.45;;;;;;;10.95;100.00;100244.88;5071956;28;20505;-63
2021/01/29 03:33:54;;;;;;;31.95;5.22;;;;;;;10.94;100.00;100243.22;5071954;28;20029;-62
2021/01/29 03:36:23;;;;;;;46.53;6.65;;;;;;;10.96;100.00;100251.16;5072111;28;20043;-63
2021/01/29 03:39:13;;;;;;;41.63;5.50;;;;;;;10.94;100.00;100243.22;5071936;28;20047;-62
2021/01/29 03:41:43;;;;;;;51.10;6.55;;;;;;;10.92;100.00;100250.84;5071133;28;20053;-62
2021/01/29 03:44:32;;;;;;;33.72;5.50;;;;;;;10.94;100.00;100239.69;5071750;28;20043;-63
2021/01/29 03:47:30;;;;;;;45.95;6.20;;;;;;;10.94;100.00;100248.69;5071717;28;20040;-63
2021/01/29 03:50:04;;;;;;;37.95;5.75;;;;;;;10.92;100.00;100256.28;5070889;28;20044;-62
2021/01/29 03:53:06;;;;;;;49.20;7.20;;;;;;;10.93;100.00;100247.00;5071787;28;20035;-63
2021/01/29 03:55:45;;;;;;;45.85;6.53;;;;;;;10.93;100.00;100252.47;5071872;28;20440;-62
2021/01/29 03:58:48;;;;;;;52.78;6.15;;;;;;;10.94;100.00;100245.97;5071538;28;20068;-63
2021/01/29 04:01:35;;;;;;;39.45;6.65;;;;;;;10.91;100.00;100243.72;5069981;28;20029;-63
2021/01/29 04:04:55;;;;;;;48.33;6.30;;;;;;;10.90;100.00;100241.25;5071362;28;20041;-62
2021/01/29 04:07:38;;;;;;;39.95;6.35;;;;;;;10.90;100.00;100253.00;5068883;28;20080;-63
2021/01/29 04:10:11;;;;;;;50.40;6.13;;;;;;;10.91;100.00;100251.91;5068325;28;20142;-63
2021/01/29 04:13:08;;;;;;;34.60;5.60;;;;;;;10.88;100.00;100233.31;5071423;28;20032;-62
2021/01/29 04:15:45;;;;;;;40.80;6.15;;;;;;;10.88;100.00;100233.31;5071313;28;20028;-62
2021/01/29 04:18:20;;;;;;;39.92;6.35;;;;;;;10.85;100.00;100231.09;5071080;28;20068;-63
2021/01/29 04:20:56;;;;;;;38.20;5.88;;;;;;;10.84;100.00;100241.22;5071142;28;20028;-63
2021/01/29 04:23:29;;;;;;;33.65;5.10;;;;;;;10.82;100.00;100223.44;5071130;28;20397;-63
2021/01/29 04:26:11;;;;;;;41.40;6.00;;;;;;;10.84;100.00;100229.47;5069862;28;20047;-63
2021/01/29 04:28:47;;;;;;;34.65;6.55;;;;;;;10.83;100.00;100233.28;5071107;28;20039;-63
2021/01/29 04:31:15;;;;;;;34.20;5.30;;;;;;;10.81;100.00;100238.19;5071008;28;20143;-63
2021/01/29 04:33:47;;;;;;;46.45;5.93;;;;;;;10.79;100.00;100213.03;5070937;28;20044;-63
2021/01/29 04:36:16;;;;;;;34.47;5.82;;;;;;;10.79;100.00;100213.03;5071116;28;20032;-63
2021/01/29 04:38:45;;;;;;;31.35;4.75;;;;;;;10.75;100.00;100200.94;5070067;28;20040;-63
2021/01/29 04:41:38;;;;;;;29.00;4.47;;;;;;;10.75;100.00;100204.50;5070996;28;20039;-63
2021/01/29 04:44:18;;;;;;;42.50;6.97;;;;;;;10.78;100.00;100239.53;5070814;28;20036;-63
2021/01/29 04:46:44;;;;;;;57.90;6.55;;;;;;;10.76;100.00;100259.97;5070989;28;20071;-62
2021/01/29 04:49:30;;;;;;;20.52;3.92;;;;;;;10.11;100.00;100258.09;5070794;28;20056;-62
2021/01/29 04:52:33;;;;;;;12.90;2.00;;;;;;;9.51;100.00;100226.19;5070723;28;20060;-63
2021/01/29 04:55:20;;;;;;;10.95;1.75;;;;;;;9.15;100.00;100239.25;5070776;28;20033;-62
2021/01/29 04:57:53;;;;;;;11.70;1.30;;;;;;;9.06;100.00;100229.84;5070838;28;20040;-62
2021/01/29 05:00:38;;;;;;;7.43;1.58;;;;;;;8.97;100.00;100234.03;5070684;28;20036;-62
2021/01/29 05:03:09;;;;;;;12.13;1.65;;;;;;;8.99;100.00;100248.22;5070692;28;20501;-63
2021/01/29 05:05:57;;;;;;;19.85;3.65;;;;;;;9.08;100.00;100246.78;5070593;28;20086;-62
2021/01/29 05:08:47;;;;;;;14.82;2.92;;;;;;;9.12;100.00;100253.38;5070659;28;20111;-63
2021/01/29 05:11:43;;;;;;;17.13;2.63;;;;;;;9.11;100.00;100251.72;5070635;28;20051;-62
2021/01/29 05:14:16;;;;;;;15.60;2.80;;;;;;;9.14;100.00;100245.78;5070608;28;20107;-62
2021/01/29 05:16:58;;;;;;;28.95;4.72;;;;;;;9.27;100.00;100237.28;5070669;28;20043;-63
2021/01/29 05:19:48;;;;;;;35.20;3.88;;;;;;;9.44;100.00;100222.81;5070634;28;20082;-63
2021/01/29 05:22:26;;;;;;;33.30;4.53;;;;;;;9.52;100.00;100227.81;5070520;28;20035;-63
2021/01/29 05:25:18;;;;;;;36.00;5.20;;;;;;;9.62;100.00;100222.53;5070473;28;20101;-63
2021/01/29 05:28:14;;;;;;;31.15;4.82;;;;;;;9.71;100.00;100245.56;5070597;28;20045;-63
2021/01/29 05:30:53;;;;;;;27.33;4.88;;;;;;;9.81;100.00;100239.44;5070453;28;20041;-63
2021/01/29 05:33:43;;;;;;;31.83;5.82;;;;;;;9.85;100.00;100218.75;5070919;28;20025;-63
2021/01/29 05:36:30;;;;;;;26.13;4.60;;;;;;;9.91;100.00;100232.22;5070450;28;20028;-63
2021/01/29 05:39:24;;;;;;;45.97;6.57;;;;;;;9.97;100.00;100228.47;5070361;28;20028;-62
2021/01/29 05:42:05;;;;;;;40.92;5.13;;;;;;;10.02;100.00;100221.41;5070296;28;20131;-62
2021/01/29 05:44:40;;;;;;;45.42;5.72;;;;;;;10.04;100.00;100227.44;5070323;28;20060;-63
2021/01/29 05:47:19;;;;;;;40.88;5.93;;;;;;;10.09;100.00;100230.25;5070300;28;20055;-62
2021/01/29 05:50:03;;;;;;;37.90;6.53;;;;;;;10.11;100.00;100228.09;5071804;28;20037;-62
2021/01/29 05:52:42;;;;;;;38.55;4.93;;;;;;;10.15;100.00;100223.78;5072835;28;20115;-62
2021/01/29 05:55:39;;;;;;;49.33;6.97;;;;;;;10.17;100.00;100216.16;5073908;28;20032;-62
2021/01/29 05:58:17;;;;;;;42.17;5.30;;;;;;;10.13;100.00;100221.31;5073847;28;20521;-63
2021/01/29 06:00:49;;;;;;;43.33;6.18;;;;;;;10.18;100.00;100204.16;5073865;28;20128;-62
2021/01/29 06:03:49;;;;;;;46.58;6.35;;;;;;;10.20;100.00;100221.09;5073837;28;20032;-63
2021/01/29 06:06:46;;;;;;;34.35;5.35;;;;;;;10.22;100.00;100213.50;5073129;28;20048;-63
2021/01/29 06:09:41;;;;;;;50.47;7.57;;;;;;;10.23;100.00;100204.22;5073818;28;20214;-62
2021/01/29 06:12:31;;;;;;;44.55;5.85;;;;;;;10.25;100.00;100213.03;5073605;28;20067;-62
2021/01/29 06:15:25;;;;;;;33.15;6.00;;;;;;;10.26;100.00;100199.13;5073721;28;20036;-62
2021/01/29 06:18:18;;;;;;;39.92;5.70;;;;;;;10.27;100.00;100205.41;5073775;28;20621;-63
2021/01/29 06:21:25;;;;;;;35.20;6.70;;;;;;;10.30;100.00;100185.78;5073384;28;20394;-62
2021/01/29 06:23:57;;;;;;;25.40;4.97;;;;;;;10.32;100.00;100194.53;5073506;28;20455;-63
2021/01/29 06:26:41;;;;;;;47.58;7.03;;;;;;;10.36;100.00;100203.84;5073264;28;20037;-62
2021/01/29 06:29:23;;;;;;;40.35;6.50;;;;;;;10.38;100.00;100207.13;5073304;28;20382;-63
2021/01/29 06:31:51;;;;;;;30.95;6.28;;;;;;;10.38;100.00;100201.69;5073224;28;20425;-63
2021/01/29 06:34:17;;;;;;;37.60;6.60;;;;;;;10.37;100.00;100185.56;5073347;28;20387;-62
2021/01/29 06:37:34;;;;;;;45.28;7.03;;;;;;;10.40;100.00;100210.44;5073320;28;20024;-62
2021/01/29 06:40:00;;;;;;;45.05;7.45;;;;;;;10.40;100.00;100217.81;5070426;28;20406;-62
2021/01/29 06:43:10;;;;;;;41.30;6.85;;;;;;;10.40;100.00;100191.31;5071036;28;20044;-63
2021/01/29 06:46:09;;;;;;;52.35;8.73;;;;;;;10.41;100.00;100228.50;5070363;28;20495;-63
2021/01/29 06:48:59;;;;;;;40.95;7.25;;;;;;;10.44;100.00;100218.97;5053837;28;20040;-63
2021/01/29 06:51:59;;;;;;;47.35;7.10;;;;;;;10.38;100.00;100212.59;5072526;28;20102;-63
2021/01/29 06:54:44;;;;;;;38.97;6.10;;;;;;;10.26;100.00;100225.59;5072700;28;20077;-63
2021/01/29 06:58:00;;;;;;;35.50;6.15;;;;;;;10.18;100.00;100229.53;5071491;28;20036;-63
2021/01/29 07:00:46;;;;;;;53.08;7.53;;;;;;;10.10;100.00;100221.00;5071807;28;20032;-62
2021/01/29 07:03:49;;;;;;;58.13;8.55;;;;;;;10.05;100.00;100229.09;5072658;28;20482;-62
2021/01/29 07:06:47;;;;;;;48.58;5.97;;;;;;;10.00;100.00;100218.94;5072788;28;20037;-62
2021/01/29 07:09:15;;;;;;;41.85;6.13;;;;;;;10.04;100.00;100227.44;5070222;28;20057;-63
2021/01/29 07:12:16;;;;;;;55.17;8.48;;;;;;;10.11;100.00;100233.56;5072472;28;20036;-63
2021/01/29 07:15:07;;;;;;;41.45;6.72;;;;;;;10.15;100.00;100212.84;5071378;28;20467;-62
2021/01/29 07:17:43;;;;;;;43.97;6.00;;;;;;;10.16;100.00;100236.34;5072315;28;20033;-62
2021/01/29 07:20:36;;;;;;;40.05;6.80;;;;;;;10.21;100.00;100247.34;5072701;28;20048;-63
2021/01/29 07:23:35;;;;;;;58.00;8.98;;;;;;;10.24;100.00;100227.75;5072409;28;20377;-62
2021/01/29 07:26:38;;;;;;;60.03;8.57;;;;;;;10.32;100.00;100251.84;5072030;28;20068;-63
2021/01/29 07:29:27;;;;;;;51.55;7.13;;;;;;;10.39;100.00;100240.72;5072394;28;20040;-63
2021/01/29 07:32:32;;;;;;;40.70;6.13;;;;;;;10.44;100.00;100252.53;5071984;28;20177;-63
2021/01/29 07:35:25;;;;;;;35.63;7.13;;;;;;;10.45;100.00;100251.47;5072034;28;20060;-63
2021/01/29 07:38:18;;;;;;;38.42;6.93;;;;;;;10.46;100.00;100231.28;5072053;28;20036;-63
2021/01/29 07:40:55;;;;;;;37.75;5.50;;;;;;;10.50;100.00;100262.44;5071851;28;20471;-62
2021/01/29 07:43:27;;;;;;;40.88;7.78;;;;;;;10.48;100.00;100240.03;5071959;28;20060;-62
2021/01/29 07:46:31;;;;;;;40.55;6.90;;;;;;;10.50;100.00;100273.34;5071923;28;20178;-63
2021/01/29 07:49:15;;;;;;;31.85;6.65;;;;;;;10.44;100.00;100266.19;5071787;28;20040;-63
2021/01/29 07:52:07;;;;;;;35.33;6.30;;;;;;;10.44;100.00;100263.47;5071584;28;20041;-62
2021/01/29 07:55:01;;;;;;;29.50;6.75;;;;;;;10.35;100.00;100267.72;5071245;28;20098;-63
2021/01/29 07:57:47;;;;;;;40.70;6.50;;;;;;;10.32;100.00;100273.69;5071581;28;20036;-62
2021/01/29 08:00:21;;;;;;;34.72;6.20;;;;;;;10.30;100.00;100273.13;5071417;28;20032;-62
2021/01/29 08:03:01;;;;;;;49.35;8.82;;;;;;;10.31;100.00;100277.50;5071659;28;20045;-63
2021/01/29 08:05:45;;;;;;;49.85;6.55;;;;;;;10.35;100.00;100275.06;5071814;28;20040;-62
2021/01/29 08:08:22;;;;;;;49.47;7.47;;;;;;;10.42;100.00;100295.66;5071353;28;20036;-63
2021/01/29 08:10:52;;;;;;;40.90;6.32;;;;;;;10.49;100.00;100290.81;5071694;28;20387;-63
2021/01/29 08:13:36;;;;;;;38.72;7.20;;;;;;;10.55;100.00;100287.06;5071302;28;20037;-63
2021/01/29 08:16:01;;;;;;;42.58;6.40;;;;;;;10.58;100.00;100289.25;5071296;28;20044;-62
2021/01/29 08:19:05;;;;;;;41.92;6.38;;;;;;;10.58;100.00;100308.38;5071234;28;20029;-62
2021/01/29 08:21:58;;;;;;;35.38;6.07;;;;;;;10.57;100.00;100331.31;5069663;28;20837;-63
2021/01/29 08:25:02;;;;;;;36.45;5.97;;;;;;;10.60;100.00;100318.25;5071071;28;20038;-62
2021/01/29 08:27:40;;;;;;;37.35;6.15;;;;;;;10.56;100.00;100335.13;5071145;28;20056;-62
2021/01/29 08:30:24;;;;;;;37.95;7.30;;;;;;;10.55;100.00;100347.13;5070973;28;20085;-63
2021/01/29 08:33:05;;;;;;;40.55;7.18;;;;;;;10.48;100.00;100343.78;5071140;28;20032;-62
2021/01/29 08:35:49;;;;;;;43.92;6.28;;;;;;;10.38;100.00;100365.47;5071208;28;20459;-63
2021/01/29 08:38:37;;;;;;;40.20;6.90;;;;;;;10.29;100.00;100328.78;5070974;28;20130;-62
2021/01/29 08:41:27;;;;;;;26.63;4.22;;;;;;;10.18;100.00;100365.97;5063097;28;20033;-63
2021/01/29 08:44:06;;;;;;;28.45;4.35;;;;;;;10.15;100.00;100363.75;5069643;28;20040;-63
2021/01/29 08:46:55;;;;;;;38.85;6.25;;;;;;;10.13;100.00;100318.72;5063084;28;20107;-62
2021/01/29 08:50:08;;;;;;;37.75;5.78;;;;;;;10.13;100.00;100362.38;5069374;28;20041;-62
2021/01/29 08:52:49;;;;;;;28.60;5.93;;;;;;;10.15;100.00;100346.56;5058329;28;20095;-64
2021/01/29 08:55:29;;;;;;;34.10;6.55;;;;;;;10.22;100.00;100388.16;5067728;28;20070;-62
2021/01/29 08:58:15;;;;;;;31.90;5.68;;;;;;;10.26;100.00;100384.72;5068181;28;20391;-61
2021/01/29 09:00:42;;;;;;;37.45;5.22;;;;;;;10.30;100.00;100376.84;5050479;28;20123;-61
2021/01/29 09:03:19;;;;;;;30.85;4.47;;;;;;;10.33;100.00;100379.06;5058560;28;20055;-63
2021/01/29 09:05:49;;;;;;;26.95;4.13;;;;;;;10.35;100.00;100367.88;5060542;28;20025;-63
2021/01/29 09:08:21;;;;;;;33.08;5.30;;;;;;;10.37;100.00;100423.88;5062641;28;20037;-62
2021/01/29 09:11:13;;;;;;;26.10;4.40;;;;;;;10.34;100.00;100399.81;5058654;28;20104;-64
2021/01/29 09:13:41;;;;;;;29.92;5.88;;;;;;;10.34;100.00;100439.94;5061329;28;20036;-62
2021/01/29 09:16:25;;;;;;;30.90;5.55;;;;;;;10.35;100.00;100436.94;5065142;28;20057;-62
2021/01/29 09:19:15;;;;;;;33.55;5.53;;;;;;;10.29;100.00;100446.16;5055453;28;20044;-62
2021/01/29 09:21:58;;;;;;;42.25;6.03;;;;;;;10.27;100.00;100445.59;5054225;28;20028;-62
2021/01/29 09:24:59;;;;;;;28.23;5.35;;;;;;;10.15;100.00;100399.25;5071861;28;20032;-63
2021/01/29 09:28:07;;;;;;;30.98;4.45;;;;;;;10.13;100.00;100447.78;5063735;28;20174;-64
2021/01/29 09:30:35;;;;;;;31.88;5.75;;;;;;;10.11;100.00;100465.50;5071838;28;20557;-61
2021/01/29 09:33:13;;;;;;;27.13;5.78;;;;;;;10.09;100.00;100471.19;5071287;28;20391;-62
2021/01/29 09:35:50;;;;;;;41.42;5.95;;;;;;;10.06;100.00;100476.28;5070318;28;20467;-62
2021/01/29 09:38:32;;;;;;;30.10;5.75;;;;;;;10.09;100.00;100470.38;5055485;28;20036;-61
2021/01/29 09:41:16;;;;;;;36.90;5.95;;;;;;;10.14;100.00;100490.38;5059551;28;20179;-65
2021/01/29 09:44:14;;;;;;;44.05;6.45;;;;;;;10.21;100.00;100490.22;5073945;28;20036;-65
2021/01/29 09:46:44;;;;;;;46.25;7.53;;;;;;;10.21;100.00;100506.59;5072601;28;20040;-61
2021/01/29 09:49:21;;;;;;;45.63;7.70;;;;;;;10.24;100.00;100519.78;5061472;28;20390;-61
2021/01/29 09:51:59;;;;;;;31.50;4.93;;;;;;;10.26;100.00;100518.44;5061916;28;20055;-61
2021/01/29 09:54:59;;;;;;;38.95;8.05;;;;;;;10.29;100.00;100524.47;5073628;28;20377;-63
2021/01/29 09:57:31;;;;;;;44.33;7.25;;;;;;;10.29;100.00;100530.78;5073772;28;20032;-62
2021/01/29 09:59:57;;;;;;;44.33;6.50;;;;;;;10.33;100.00;100537.38;5063478;28;20059;-64
2021/01/29 10:02:39;;;;;;;38.85;7.97;;;;;;;10.36;100.00;100547.78;5065440;28;20122;-62
2021/01/29 10:05:17;;;;;;;46.00;7.53;;;;;;;10.44;100.00;100550.13;5062362;28;20029;-64
2021/01/29 10:07:59;;;;;;;44.38;7.47;;;;;;;10.48;100.00;100578.59;5072852;28;20139;-61
2021/01/29 10:10:46;;;;;;;48.75;8.05;;;;;;;10.53;100.00;100586.84;5064482;28;20383;-66
2021/01/29 10:13:31;;;;;;;38.97;7.32;;;;;;;10.60;100.00;100580.41;5053759;28;20475;-61
2021/01/29 10:16:07;;;;;;;;;;;;;;;10.67;100.00;100573.69;5067887;28;20112;-63
2021/01/29 10:18:36;;;;;;;30.70;5.00;;;;;;;10.75;100.00;100605.22;5071761;28;19912;-61
2021/01/29 10:21:13;;;;;;;40.70;6.63;;;;;;;10.82;100.00;100622.28;5064483;28;20086;-62
2021/01/29 10:23:50;;;;;;;41.72;6.72;;;;;;;10.90;100.00;100624.59;5070340;28;20458;-63
2021/01/29 10:26:32;;;;;;;39.10;6.43;;;;;;;11.01;100.00;100631.03;5072988;28;20463;-61
2021/01/29 10:29:25;;;;;;;38.67;7.00;;;;;;;11.14;100.00;100627.97;5062944;28;20383;-61
2021/01/29 10:32:06;;;;;;;26.52;4.75;;;;;;;11.23;100.00;100636.56;5061621;28;20029;-61
2021/01/29 10:34:41;;;;;;;40.90;6.82;;;;;;;11.37;100.00;100646.06;5058805;28;20483;-63
2021/01/29 10:37:32;;;;;;;38.92;6.00;;;;;;;11.40;100.00;100642.81;5058142;28;20044;-60
2021/01/29 10:40:20;;;;;;;31.27;5.40;;;;;;;11.41;100.00;100647.19;5060095;28;20037;-62
2021/01/29 10:43:04;;;;;;;36.70;6.93;;;;;;;11.44;100.00;100641.22;5054425;28;20032;-64
2021/01/29 10:46:03;;;;;;;40.42;6.97;;;;;;;11.58;100.00;100653.44;5073062;28;20040;-65
2021/01/29 10:49:05;;;;;;;34.20;5.90;;;;;;;11.57;100.00;100657.28;5065775;28;20029;-65
2021/01/29 10:51:43;;;;;;;37.65;6.40;;;;;;;11.49;100.00;100657.72;5061769;28;20033;-65
2021/01/29 10:54:09;;;;;;;32.10;6.18;;;;;;;11.51;100.00;100677.44;5068885;28;20035;-64
2021/01/29 10:56:53;;;;;;;38.03;5.85;;;;;;;11.64;100.00;100674.34;5062005;28;20120;-64
2021/01/29 10:59:26;;;;;;;27.83;5.15;;;;;;;11.69;100.00;100646.22;5060423;28;20083;-64
2021/01/29 11:02:01;;;;;;;36.87;4.90;;;;;;;11.81;100.00;100652.44;5059434;28;20128;-64
2021/01/29 11:04:32;;;;;;;;;;;;;;;11.84;100.00;100678.44;5072970;28;20120;-65
2021/01/29 11:07:07;;;;;;;38.95;5.63;;;;;;;11.89;100.00;100692.19;5070899;28;20420;-64
2021/01/29 11:09:41;;;;;;;41.42;6.72;;;;;;;12.02;100.00;100689.06;5054300;28;20381;-65
2021/01/29 11:12:23;;;;;;;36.28;6.35;;;;;;;11.91;100.00;100706.44;5070534;28;20039;-64
2021/01/29 11:15:01;;;;;;;41.90;7.78;;;;;;;11.89;100.00;100708.59;5072591;28;20038;-66
2021/01/29 11:17:32;;;;;;;38.95;5.88;;;;;;;11.91;100.00;100717.38;5052437;28;20044;-65
2021/01/29 11:20:02;;;;;;;49.75;6.80;;;;;;;11.94;100.00;100716.88;5052302;28;20044;-64
2021/01/29 11:22:43;;;;;;;38.33;6.25;;;;;;;12.06;100.00;100703.91;5052464;28;20036;-65
2021/01/29 11:25:43;;;;;;;31.33;4.97;;;;;;;12.12;100.00;100723.94;5050949;28;20047;-65
2021/01/29 11:28:13;;;;;;;34.13;5.78;;;;;;;12.33;100.00;100737.63;5052073;28;20068;-65
2021/01/29 11:31:17;;;;;;;40.90;5.70;;;;;;;12.34;100.00;100733.81;5052157;28;20523;-65
2021/01/29 11:33:49;;;;;;;31.42;5.72;;;;;;;12.37;100.00;100727.81;5051905;28;20044;-64
2021/01/29 11:36:32;;;;;;;29.65;5.07;;;;;;;12.48;100.00;100744.34;5051682;28;20040;-65
2021/01/29 11:39:11;;;;;;;35.75;4.93;;;;;;;12.49;100.00;100751.47;5052095;28;20040;-65
2021/01/29 11:41:56;;;;;;;29.05;5.80;;;;;;;12.40;100.00;100758.50;5052117;28;20033;-65
2021/01/29 11:44:46;;;;;;;39.80;7.45;;;;;;;12.38;100.00;100756.88;5051818;28;20041;-65
2021/01/29 11:47:53;;;;;;;34.15;4.85;;;;;;;12.28;100.00;100767.69;5051584;28;20143;-65
2021/01/29 11:50:50;;;;;;;27.90;5.15;;;;;;;12.19;100.00;100746.50;5051491;28;20041;-65
2021/01/29 11:53:22;;;;;;;32.47;5.47;;;;;;;12.12;100.00;100760.34;5052336;28;20029;-64
2021/01/29 11:56:02;;;;;;;29.90;5.20;;;;;;;12.06;100.00;100772.34;5051944;28;20043;-65
2021/01/29 11:58:39;;;;;;;34.70;7.22;;;;;;;11.96;100.00;100769.44;5051842;28;20078;-65
2021/01/29 12:01:19;;;;;;;32.13;5.63;;;;;;;11.88;100.00;100784.41;5051734;28;20473;-65
2021/01/29 12:04:05;;;;;;;35.17;5.78;;;;;;;11.83;100.00;100769.84;5051494;28;20064;-65
2021/01/29 12:06:41;;;;;;;35.47;5.32;;;;;;;11.90;100.00;100773.22;5051590;28;20059;-64
2021/01/29 12:09:22;;;;;;;42.55;6.25;;;;;;;11.88;100.00;100761.69;5060097;28;20029;-65
2021/01/29 12:11:57;;;;;;;30.98;4.82;;;;;;;11.89;100.00;100763.34;5054764;28;20439;-65
2021/01/29 12:14:34;;;;;;;39.33;7.43;;;;;;;11.97;100.00;100762.88;5071013;28;20032;-64